Sagehen Creek Weather observations

Data are for observation ending at time listed.
 Day   Time    Ave.   Ave.  Ave.  Vector   Max.   Stn.    Total    Solar   Ave.  
  of    of     Air    Rel.  Wind   Wind    Wind   Baro.  Precip.   Rad.    Soil  
Year   Day     Temp.  Hum.  Speed  Dir.    Gust   Pres.                    Temp. 
2016   (PST)    F      %     mph   deg.    mph     mb.     in.     W/m2     F   
------------------------------------------------------------------------------
 120   14:30   53.8    39    3.9   231      9.4   832.9   23.94     801    999.0
 120   14:40   54.0    42    3.7   227      9.0   832.7   23.94     778    999.0
 120   14:50   53.7    41    3.8   251      8.5   832.7   23.94     748    999.0
 120   15:00   54.1    39    2.7   261      6.9   832.7   23.94     726    999.0
 120   15:10   53.8    38    3.3   232     10.0   832.6   23.94     700    999.0
 120   15:20   53.6    40    3.3   246      8.2   832.5   23.93     686    999.0
 120   15:30   53.9    37    2.9   272      7.8   832.3   23.94     680    999.0
 120   15:40   53.3    39    3.0   244      6.5   832.4   23.93     637    999.0
 120   15:50   52.4    39    4.0   235     10.6   832.3   23.94     610    999.0
 120   16:00   51.7    41    3.4   238     10.3   832.2   23.95     559    999.0
 120   16:10   51.9    41    3.6   241     11.0   832.1   23.94     522    999.0
 120   16:20   51.2    42    3.9   249     13.1   832.0   23.96     502    999.0
 120   16:30   51.1    41    3.9   247     10.5   832.0   23.96     497    999.0
 120   16:40   51.2    40    3.3   245      7.5   832.1   23.97     431    999.0
 120   16:50   50.4    41    3.5   237      9.2   832.1   23.97     374    999.0
 120   17:00   49.5    44    2.3   233      6.1   832.0   23.96     263    999.0
 120   17:10   48.6    41    3.3   247     11.5   831.3   23.96     252    999.0
 120   17:20   48.3    40    2.3   242      8.0   831.6   23.96     240    999.0
 120   17:30   47.6    42    3.1   252      7.8   831.8   23.97     110    999.0
 120   17:40   46.7    45    2.5   235      8.8   831.5   23.97      54    999.0
 120   17:50   45.7    47    1.8   236      8.7   831.8   23.97      17    999.0
 120   18:00   43.7    57    3.6    82     12.3   832.1   23.97       5    999.0
 120   18:10   38.4    77    2.3   113      6.0   833.1   24.04       1    999.0
 120   18:20   34.7    87    1.0   116      2.8   833.2   24.07       1    999.0
 120   18:30   33.4    90    0.1   206      1.3   833.3   24.10       0    999.0
 120   18:40   33.0    91    0.0   194      0.2   833.3   24.13       0    999.0
 120   18:50   32.8    92    0.0     0      0.0   833.3   24.15       0    999.0
 120   19:00   32.8    92    0.0     0      0.0   833.3   24.16       0    999.0
 120   19:10   33.0    93    0.4   354      3.8   833.4   24.16       0    999.0
 120   19:20   33.4    93    0.1   234      2.6   833.1   24.16       0    999.0
 120   19:30   33.6    93    0.0     0      0.0   832.9   24.16       0    999.0
 120   19:40   33.4    92    0.0     0      0.0   833.2   24.16       0    999.0
 120   19:50   33.3    93    0.0     0      0.0   833.2   24.16       0    999.0
 120   20:00   33.2    93    0.0     0      0.0   833.2   24.17       0    999.0
 120   20:10   33.1    93    0.0     0      0.0   833.3   24.17       0    999.0
 120   20:20   33.1    94    0.0     0      0.0   833.6   24.17       0    999.0
 120   20:30   33.2    94    0.0   294      0.1   833.8   24.17       0    999.0
 120   20:40   33.2    94    0.0   247      1.1   834.0   24.17       0    999.0
 120   20:50   33.2    94    0.1   171      1.6   834.0   24.19       0    999.0
 120   21:00   33.1    94    1.1    55      3.6   834.0   24.20       0    999.0
 120   21:10   32.9    93    0.8    65      3.3   834.2   24.21       0    999.0
 120   21:20   32.7    93    0.1   107      1.3   834.0   24.22       0    999.0
 120   21:30   32.8    94    0.3   136      2.5   833.9   24.22       0    999.0
 120   21:40   33.0    94    0.4   291      2.1   834.2   24.22       0    999.0
 120   21:50   33.2    93    0.6   229      4.3   834.2   24.22       0    999.0
 120   22:00   33.2    92    0.5    98      2.1   834.3   24.22       0    999.0
 120   22:10   33.0    92    0.2    56      2.2   834.3   24.23       0    999.0
 120   22:20   32.9    92    0.5   228      1.8   834.3   24.23       0    999.0
 120   22:30   32.8    93    0.2   239      1.7   834.2   24.23       0    999.0
 120   22:40   32.6    93    0.8   277      2.2   833.7   24.22       0    999.0
 120   22:50   32.6    92    1.0   156      4.0   834.0   24.23       0    999.0
 120   23:00   32.8    91    0.6    15      3.5   834.2   24.23       0    999.0
 120   23:10   32.8    91    0.2   166      1.5   834.3   24.22       0    999.0
 120   23:20   32.8    91    0.6   157      3.3   834.1   24.23       0    999.0
 120   23:30   32.7    92    0.3   177      3.8   833.9   24.22       0    999.0
 120   23:40   32.6    92    0.2     8      1.7   834.4   24.22       0    999.0
 120   23:50   32.5    93    0.2   196      1.7   834.2   24.22       0    999.0
 121    0:00   32.6    92    0.9    32      3.8   834.0   24.22       0    999.0
 121    0:10   32.7    90    0.1   331      0.9   834.2   24.22       0    999.0
 121    0:20   32.6    92    0.4   287      2.3   834.4   24.22       0    999.0
 121    0:30   32.6    91    0.8   344      2.4   834.5   24.22       0    999.0
 121    0:40   32.6    90    0.1   300      1.1   834.0   24.22       0    999.0
 121    0:50   32.6    91    0.1   247      1.4   834.0   24.22       0    999.0
 121    1:00   32.6    91    0.4     4      2.5   834.1   24.23       0    999.0
 121    1:10   32.6    91    0.2   337      1.3   833.7   24.23       0    999.0
 121    1:20   32.5    91    0.5   293      2.5   833.9   24.22       0    999.0
 121    1:30   32.5    90    0.6    44      2.7   834.0   24.23       0    999.0
 121    1:40   32.7    88    1.9    83      6.3   833.9   24.23       0    999.0
 121    1:50   32.5    89    0.6    17      2.4   833.7   24.23       0    999.0
 121    2:00   32.4    89    0.6    28      2.5   833.5   24.23       0    999.0
 121    2:10   32.2    88    0.8    50      3.7   833.8   24.23       0    999.0
 121    2:20   31.9    89    0.5   330      2.8   833.7   24.22       0    999.0
 121    2:30   31.9    89    0.9   274      2.6   833.7   24.23       0    999.0
 121    2:40   31.7    90    0.5    98      1.3   833.3   24.23       0    999.0
 121    2:50   31.4    90    0.4   288      1.8   833.5   24.23       0    999.0
 121    3:00   31.3    91    0.8   274      2.5   833.7   24.23       0    999.0
 121    3:10   31.5    89    1.0   265      3.1   833.6   24.23       0    999.0
 121    3:20   31.6    89    0.6   244      2.4   833.6   24.23       0    999.0
 121    3:30   31.1    91    0.6   265      2.0   833.6   24.23       0    999.0
 121    3:40   31.2    92    0.9   309      1.8   833.8   24.22       0    999.0
 121    3:50   31.2    92    0.5   303      1.7   833.8   24.22       0    999.0
 121    4:00   31.2    92    0.7   299      2.0   833.7   24.22       0    999.0
 121    4:10   31.4    91    0.4   301      1.8   833.7   24.23       0    999.0
 121    4:20   31.3    92    0.2   227      1.8   833.7   24.23       0    999.0
 121    4:30   31.4    92    0.8   306      3.4   833.6   24.23       0    999.0
 121    4:40   31.5    92    0.6   282      2.6   833.7   24.22       0    999.0
 121    4:50   31.5    92    0.5   288      1.6   833.5   24.23       0    999.0
 121    5:00   31.6    92    0.2   275      1.5   833.3   24.23       0    999.0
 121    5:10   31.7    93    0.5   309      1.5   833.7   24.23       1    999.0
 121    5:20   31.8    93    0.0     0      0.0   833.9   24.23       2    999.0
 121    5:30   31.8    93    0.5   272      2.2   834.0   24.23       5    999.0
 121    5:40   32.0    92    0.2   288      1.4   834.1   24.23       7    999.0
 121    5:50   32.2    92    0.0   293      0.8   834.2   24.23       7    999.0
 121    6:00   32.2    93    0.3   304      0.9   834.3   24.23      15    999.0
 121    6:10   32.4    93    0.0     0      0.0   834.4   24.23      16    999.0
 121    6:20   32.5    93    0.1   250      0.9   834.4   24.23      17    999.0
 121    6:30   32.7    93    0.2   145      1.1   834.3   24.23      24    999.0
 121    6:40   32.7    92    0.3   106      2.3   834.5   24.23      29    999.0
 121    6:50   33.0    91    0.1    42      1.4   834.3   24.22      48    999.0
 121    7:00   33.3    89    1.7   118      6.5   834.2   24.22      66    999.0
 121    7:10   33.6    87    1.6   103      5.9   834.7   24.23      81    999.0
 121    7:20   33.8    86    1.6    99      5.9   834.7   24.23      63    999.0
 121    7:30   34.0    87    1.1    73      4.1   834.8   24.22      87    999.0
 121    7:40   34.2    86    1.6    91      5.8   834.5   24.22      86    999.0
 121    7:50   34.4    86    1.7    89      5.9   834.7   24.23     107    999.0
 121    8:00   34.7    85    1.7   106      7.1   834.8   24.23     126    999.0
 121    8:10   34.9    84    2.3   117      5.6   834.4   24.22     118    999.0
 121    8:20   34.8    84    2.4    79      7.6   834.4   24.23      97    999.0
 121    8:30   34.6    85    2.5    94      8.1   834.4   24.22      82    999.0
 121    8:40   34.6    86    2.7   100      6.4   834.5   24.23      82    999.0
 121    8:50   34.6    86    2.5   124      6.4   834.6   24.23      73    999.0
 121    9:00   34.4    86    3.3   104      8.3   834.7   24.23      67    999.0
 121    9:10   34.5    87    1.5   114      5.5   835.0   24.23     120    999.0
 121    9:20   34.7    86    2.5   110      9.3   834.7   24.23      98    999.0
 121    9:30   34.9    86    2.5    99      7.5   834.4   24.22     130    999.0
 121    9:40   35.3    86    2.8   108      7.7   834.4   24.23     140    999.0
 121    9:50   35.6    86    1.8    91      6.6   834.5   24.22     148    999.0
 121   10:00   35.9    85    2.7   110      6.0   834.6   24.22     107    999.0
 121   10:10   36.1    85    2.3   105      7.2   835.0   24.23     160    999.0
 121   10:20   36.8    83    2.8    92      7.9   834.9   24.22     191    999.0
 121   10:30   37.3    81    2.9   100     10.4   834.9   24.23     216    999.0
 121   10:40   37.8    79    3.4    92     10.3   834.9   24.22     205    999.0
 121   10:50   37.7    79    2.5   108      6.9   835.1   24.22     166    999.0
 121   11:00   37.8    77    3.9    93     12.1   835.2   24.22     208    999.0
 121   11:10   38.1    77    3.8    95     10.3   835.0   24.22     251    999.0
 121   11:20   38.9    77    3.1    88      7.0   835.2   24.23     294    999.0
 121   11:30   39.1    76    2.9    89      8.8   835.3   24.22     282    999.0
 121   11:40   39.4    75    4.9    92     10.6   834.9   24.22     290    999.0
 121   11:50   39.6    74    4.1    99      8.4   835.1   24.22     290    999.0
 121   12:00   39.8    73    4.2    91      8.8   835.3   24.22     235    999.0
 121   12:10   40.4    73    3.7    96     10.6   834.8   24.22     352    999.0
 121   12:20   41.4    69    5.4    97     11.3   834.9   24.22     408    999.0
 121   12:30   41.9    69    4.9    95     10.6   834.9   24.22     631    999.0
 121   12:40   42.7    66    4.6   103     10.0   834.6   24.22     307    999.0
 121   12:50   42.9    65    5.9    93     10.9   834.9   24.22     721    999.0
 121   13:00   43.9    63    5.0   112     10.6   835.2   24.21     655    999.0
 121   13:10   44.1    60    6.9    99     13.5   834.9   24.22     482    999.0
 121   13:20   44.3    61    6.1    90     12.0   835.0   24.21     644    999.0
 121   13:30   44.2    61    4.3    97      9.0   835.0   24.22     400    999.0
 121   13:40   44.5    60    4.2    93      9.2   835.0   24.21     436    999.0
 121   13:50   44.5    59    4.9    92     12.5   835.0   24.21     389    999.0
 121   14:00   45.3    58    4.2    98      8.9   835.0   24.20     563    999.0
 121   14:10   45.9    56    5.1   102     14.6   834.9   24.21     572    999.0
 121   14:20   46.7    56    4.6   100     10.0   834.9   24.21     564    999.0

Return to Sagehen Creek graphs page.


Western Regional Climate Center,wrcc@dri.edu